Latest Weather Observations for Oodnadatta

IDS60801

Issued at 9:35 pm CST Saturday 30 August 2014 (issued every 30 minutes, with the page automatically refreshed every 10 minutes)

About weather observations | Map of weather stations | Latest weather observations for SA | Other Formats
Station Details ID: 017043 Name: OODNADATTA AIRPORT Lat: -27.56 Lon: 135.45 Height: 116.5 m
Data from the previous 72 hours. | See also: Recent months at Oodnadatta
Date/Time
CST
Temp
°C
App
Temp
°C
Dew
Point
Rel
Hum
%
Delta-T
°C
Wind Press
QNH
hPa
Press
MSL
hPa
Rain
since 9 am
mm
Dir
 
Spd
km/h
Gust
km/h
Spd
kts
Gust
kts
30/09:30pm 17.3 12.6 -4.6 22 8.6 N 11 13 6 7 1019.6 - 0.0
30/09:00pm 19.5 14.5 -4.0 20 9.6 N 13 15 7 8 1019.4 1019.4 0.0
30/08:30pm 19.8 14.9 -3.8 20 9.7 NNE 13 13 7 7 1019.2 - 0.0
30/08:00pm 19.5 14.8 -5.4 18 9.9 N 11 11 6 6 1019.1 - 0.0
30/07:30pm 20.3 16.3 -5.5 17 10.3 N 7 9 4 5 1018.9 - 0.0
30/07:00pm 21.8 17.9 -5.1 16 11.0 N 7 9 4 5 1018.6 - 0.0
30/06:30pm 22.9 19.0 -4.2 16 11.4 NNE 7 9 4 5 1018.4 - 0.0
30/06:00pm 24.1 19.4 -5.0 14 12.1 N 11 17 6 9 1018.2 1018.2 0.0
30/05:30pm 24.7 20.4 -4.6 14 12.4 N 9 13 5 7 1018.2 - 0.0
30/05:00pm 25.0 19.7 -3.4 15 12.3 ENE 15 19 8 10 1018.0 - 0.0
30/04:30pm 25.3 20.7 -4.1 14 12.6 N 11 19 6 10 1018.0 - 0.0
30/04:00pm 25.8 21.0 -2.8 15 12.6 N 13 20 7 11 1018.1 - 0.0
30/03:30pm 25.8 20.9 -3.7 14 12.8 N 13 19 7 10 1018.1 - 0.0
30/03:00pm 25.2 19.7 -2.4 16 12.2 NE 17 30 9 16 1018.3 1018.3 0.0
30/02:30pm 25.4 21.0 -2.2 16 12.3 N 11 22 6 12 1018.7 - 0.0
30/02:00pm 24.5 18.5 -2.9 16 12.0 ENE 19 32 10 17 1019.1 - 0.0
30/01:30pm 24.4 18.8 -3.0 16 11.9 NNE 17 28 9 15 1019.9 - 0.0
30/01:00pm 24.7 18.6 -2.0 17 11.9 NNE 20 28 11 15 1020.4 - 0.0
30/12:30pm 24.5 19.4 -2.1 17 11.8 NNE 15 28 8 15 1021.2 - 0.0
30/12:00pm 23.0 17.8 -2.6 18 11.0 N 15 24 8 13 1021.9 1021.8 0.0
30/11:30am 23.8 17.9 -1.9 18 11.4 NNE 19 28 10 15 1022.6 - 0.0
30/11:00am 22.5 16.5 -1.6 20 10.6 NE 20 33 11 18 1023.0 - 0.0
30/10:30am 22.7 16.7 -1.4 20 10.7 N 20 30 11 16 1023.5 - 0.0
30/10:00am 21.9 15.2 -1.4 21 10.2 NNE 24 30 13 16 1023.6 - 0.0
30/09:30am 20.7 13.6 -1.2 23 9.6 NNE 26 32 14 17 1023.5 - 0.0
30/09:00am 19.5 11.9 -2.2 23 9.1 NE 28 33 15 18 1023.5 1023.4 0.0
30/08:30am 18.1 11.5 -3.3 23 8.7 NE 22 30 12 16 1023.4 - 0.0
30/08:00am 14.8 9.4 -4.5 26 7.4 ENE 15 19 8 10 1023.2 - 0.0
30/07:56am 14.1 8.7 -4.6 27 7.1 ENE 15 19 8 10 1023.1 - 0.0
30/07:30am 9.0 3.7 -6.8 32 5.4 ENE 13 15 7 8 1023.1 - 0.0
30/07:00am 7.3 2.4 -7.1 35 4.7 ENE 11 13 6 7 1023.0 - 0.0
30/06:30am 7.2 2.7 -7.2 35 4.7 E 9 11 5 6 1022.9 - 0.0
30/06:00am 6.6 2.0 -7.7 35 4.6 SE 9 11 5 6 1022.7 1022.6 0.0
30/05:30am 7.7 3.2 -6.8 35 4.8 ENE 9 11 5 6 1022.7 - 0.0
30/05:00am 7.6 3.5 -6.9 35 4.8 ENE 7 9 4 5 1022.4 - 0.0
30/04:30am 8.0 5.2 -6.9 34 5.0 CALM 0 0 0 0 1022.2 - 0.0
30/04:00am 8.5 5.7 -7.2 32 5.2 CALM 0 6 0 3 1022.2 - 0.0
30/03:30am 9.7 5.6 -6.2 32 5.5 E 7 9 4 5 1022.3 - 0.0
30/03:00am 9.4 5.5 -6.4 32 5.4 ESE 6 7 3 4 1022.4 1022.3 0.0
30/02:30am 9.6 5.5 -6.3 32 5.5 SE 7 9 4 5 1022.6 - 0.0
30/02:00am 9.6 5.5 -6.7 31 5.6 ESE 7 11 4 6 1022.8 - 0.0
30/01:30am 10.1 5.3 -5.8 32 5.6 ESE 11 13 6 7 1022.8 - 0.0
30/01:00am 10.0 5.1 -6.8 30 5.8 E 11 13 6 7 1022.8 - 0.0
30/12:30am 11.1 8.4 -6.2 29 6.1 CALM 0 0 0 0 1022.8 - 0.0
30/12:00am 12.3 7.9 -5.7 28 6.5 E 9 11 5 6 1022.9 1022.8 0.0
 
Date/Time
CST
Temp
°C
App
Temp
°C
Dew
Point
Rel
Hum
%
Delta-T
°C
Wind Press
QNH
hPa
Press
MSL
hPa
Rain
since 9 am
mm
Dir
 
Spd
km/h
Gust
km/h
Spd
kts
Gust
kts
29/11:30pm 12.8 8.8 -5.2 28 6.7 E 7 9 4 5 1023.1 - 0.0
29/11:00pm 13.5 9.6 -5.1 27 7.0 E 7 9 4 5 1023.3 - 0.0
29/10:30pm 13.8 8.3 -5.3 26 7.1 ENE 15 15 8 8 1023.3 - 0.0
29/10:00pm 14.3 9.6 -5.4 25 7.4 ESE 11 15 6 8 1023.5 - 0.0
29/09:30pm 15.4 9.9 -5.0 24 7.8 E 15 17 8 9 1023.3 - 0.0
29/09:00pm 15.4 9.9 -5.6 23 7.9 ESE 15 17 8 9 1023.2 1023.1 0.0
29/08:30pm 16.5 11.3 -5.9 21 8.5 ESE 13 17 7 9 1023.2 - 0.0
29/08:00pm 17.3 11.8 -5.8 20 8.9 SE 15 15 8 8 1022.9 - 0.0
29/07:30pm 19.4 14.0 -4.8 19 9.7 SE 15 17 8 9 1022.6 - 0.0
29/07:00pm 20.6 14.8 -4.5 18 10.2 ESE 17 20 9 11 1022.2 - 0.0
29/06:30pm 21.4 15.7 -3.9 18 10.5 ESE 17 20 9 11 1022.0 - 0.0
29/06:00pm 22.8 17.6 -2.7 18 11.0 ESE 15 20 8 11 1021.7 1021.6 0.0
29/05:30pm 23.3 18.4 -3.1 17 11.4 ESE 13 19 7 10 1021.7 - 0.0
29/05:00pm 24.0 18.5 -1.8 18 11.4 ESE 17 26 9 14 1021.7 - 0.0
29/04:30pm 24.6 19.3 -0.5 19 11.5 E 17 24 9 13 1021.6 - 0.0
29/04:00pm 24.6 19.7 -0.5 19 11.5 SE 15 22 8 12 1021.7 - 0.0
29/03:30pm 24.3 19.1 -0.1 20 11.2 E 17 24 9 13 1021.9 - 0.0
29/03:00pm 24.3 19.8 -0.1 20 11.2 SE 13 24 7 13 1022.1 1022.0 0.0
29/02:30pm 24.0 20.5 1.0 22 10.8 ENE 9 19 5 10 1022.6 - 0.0
29/02:00pm 24.2 19.9 1.2 22 10.8 SSE 13 24 7 13 1022.8 - 0.0
29/01:30pm 23.3 18.6 1.0 23 10.4 SE 15 24 8 13 1023.4 - 0.0
29/01:00pm 24.0 18.7 1.6 23 10.6 E 19 26 10 14 1024.1 - 0.0
29/12:30pm 23.5 18.0 1.8 24 10.3 ENE 20 30 11 16 1024.5 - 0.0
29/12:00pm 23.3 16.5 1.0 23 10.3 E 26 33 14 18 1025.2 1025.2 0.0
29/11:30am 22.7 16.1 -0.1 22 10.3 NE 24 33 13 18 1025.9 - 0.0
29/11:00am 22.7 15.9 0.5 23 10.2 ENE 26 35 14 19 1026.2 - 0.0
29/10:30am 21.8 14.1 -0.2 23 9.9 NE 30 39 16 21 1026.7 - 0.0
29/10:00am 21.2 13.5 -0.1 24 9.5 NE 30 37 16 20 1026.9 - 0.0
29/09:30am 20.2 11.9 -0.4 25 9.1 NE 33 43 18 23 1026.8 - 0.0
29/09:00am 19.0 10.3 -0.4 27 8.4 NE 35 41 19 22 1026.7 1026.7 0.0
29/08:30am 17.9 11.8 0.1 30 7.8 ENE 22 30 12 16 1026.7 - 0.0
29/08:00am 16.4 10.9 0.5 34 6.9 ENE 19 24 10 13 1026.4 - 0.0
29/07:30am 12.4 10.3 1.4 47 4.7 E 2 7 1 4 1026.1 - 0.0
29/07:00am 11.2 9.5 1.7 52 4.0 CALM 0 0 0 0 1025.6 - 0.0
29/06:30am 11.0 6.8 1.5 52 4.0 E 13 15 7 8 1025.1 - 0.0
29/06:00am 11.3 6.4 2.3 54 3.9 E 17 19 9 10 1024.7 1024.6 0.0
29/05:30am 10.3 6.0 1.2 53 3.8 E 13 15 7 8 1024.6 - 0.0
29/05:00am 9.8 5.4 0.4 52 3.8 E 13 15 7 8 1024.4 - 0.0
29/04:30am 10.2 7.0 0.8 52 3.9 E 7 9 4 5 1024.1 - 0.0
29/04:00am 10.4 7.2 0.7 51 4.0 ESE 7 9 4 5 1024.1 - 0.0
29/03:30am 11.2 7.7 1.2 50 4.2 ESE 9 11 5 6 1024.0 - 0.0
29/03:00am 11.5 8.0 1.2 49 4.3 ESE 9 11 5 6 1024.2 1024.1 0.0
29/02:30am 12.3 9.3 2.2 50 4.4 E 7 9 4 5 1024.5 - 0.0
29/02:00am 12.8 9.1 2.4 49 4.6 E 11 11 6 6 1024.6 - 0.0
29/01:30am 12.3 9.7 0.7 45 4.9 E 4 7 2 4 1024.7 - 0.0
29/01:00am 12.7 9.2 1.4 46 4.8 ESE 9 13 5 7 1024.9 - 0.0
29/12:30am 12.7 9.1 0.8 44 5.0 ESE 9 13 5 7 1025.0 - 0.0
29/12:00am 13.9 10.5 1.9 44 5.2 E 9 11 5 6 1024.9 1024.9 0.0
 
Date/Time
CST
Temp
°C
App
Temp
°C
Dew
Point
Rel
Hum
%
Delta-T
°C
Wind Press
QNH
hPa
Press
MSL
hPa
Rain
since 9 am
mm
Dir
 
Spd
km/h
Gust
km/h
Spd
kts
Gust
kts
28/11:30pm 14.5 10.7 1.8 42 5.6 E 11 13 6 7 1024.9 - 0.0
28/11:00pm 14.9 10.7 1.8 41 5.8 E 13 13 7 7 1024.8 - 0.0
28/10:30pm 15.6 11.9 2.1 40 6.0 E 11 13 6 7 1024.9 - 0.0
28/10:00pm 16.6 12.1 2.2 38 6.5 ENE 15 17 8 9 1024.7 - 0.0
28/09:30pm 17.2 12.6 1.6 35 7.0 E 15 17 8 9 1024.8 - 0.0
28/09:00pm 18.3 13.8 2.2 34 7.3 E 15 19 8 10 1024.7 1024.6 0.0
28/08:30pm 19.0 14.1 2.0 32 7.8 E 17 19 9 10 1024.4 - 0.0
28/08:00pm 18.9 14.3 1.4 31 7.9 E 15 17 8 9 1024.3 - 0.0
28/07:30pm 19.2 14.9 1.2 30 8.1 E 13 15 7 8 1024.1 - 0.0
28/07:00pm 20.8 16.6 1.6 28 8.9 E 13 15 7 8 1023.7 - 0.0
28/06:30pm 22.2 18.0 1.8 26 9.6 E 13 17 7 9 1023.5 - 0.0
28/06:00pm 23.6 18.1 1.9 24 10.2 E 20 28 11 15 1023.2 1023.1 0.0
28/05:30pm 24.3 19.4 1.9 23 10.7 E 17 24 9 13 1023.2 - 0.0
28/05:00pm 25.0 19.6 2.4 23 10.9 ENE 20 30 11 16 1023.0 - 0.0
28/04:30pm 25.3 19.9 2.7 23 11.0 ENE 20 32 11 17 1022.8 - 0.0
28/04:00pm 24.9 20.6 3.0 24 10.7 SE 15 32 8 17 1022.8 - 0.0
28/03:30pm 25.3 20.0 2.1 22 11.2 E 19 28 10 15 1022.9 - 0.0
28/03:00pm 25.2 21.6 3.2 24 10.8 E 11 28 6 15 1023.1 1023.0 0.0
28/02:30pm 24.1 19.2 2.3 24 10.5 SE 17 24 9 13 1023.5 - 0.0
28/02:00pm 24.5 18.1 3.2 25 10.4 ENE 26 35 14 19 1023.8 - 0.0
28/01:30pm 24.1 19.6 4.0 27 9.9 E 17 32 9 17 1024.1 - 0.0
28/01:00pm 24.3 19.8 4.1 27 10.0 ENE 17 26 9 14 1024.6 - 0.0
28/12:30pm 24.6 19.2 4.4 27 10.1 ENE 22 32 12 17 1025.0 - 0.0
28/12:00pm 23.2 17.6 3.7 28 9.5 E 22 33 12 18 1025.3 1025.3 0.0
28/11:30am 23.0 17.1 4.0 29 9.3 E 24 35 13 19 1025.8 - 0.0
28/11:00am 22.7 17.2 4.2 30 9.1 E 22 32 12 17 1026.0 - 0.0
28/10:30am 21.7 16.7 4.7 33 8.4 E 20 28 11 15 1026.4 - 0.0
28/10:00am 21.1 15.4 5.1 35 7.9 E 24 30 13 16 1026.6 - 0.0
28/09:30am 20.3 15.0 4.8 36 7.6 E 22 28 12 15 1026.6 - 0.0
28/09:00am 17.4 13.7 2.2 36 6.9 E 11 17 6 9 1026.6 1026.6 0.0
28/08:30am 14.7 10.7 0.5 38 6.1 ESE 11 13 6 7 1026.5 - 0.0
28/08:00am 11.7 7.9 -1.1 41 5.1 SSE 9 11 5 6 1026.2 - 0.0
28/07:30am 9.8 5.5 -1.6 45 4.4 SE 11 11 6 6 1025.8 - 0.0
28/07:00am 8.7 5.1 -2.3 46 4.2 SE 7 7 4 4 1025.6 - 0.0
28/06:30am 7.3 2.8 -3.2 47 3.8 SE 11 11 6 6 1025.2 - 0.0
28/06:00am 7.5 3.4 -3.4 46 3.9 SE 9 9 5 5 1024.7 1024.6 0.0
28/05:30am 7.1 3.3 -4.0 45 3.9 ESE 7 9 4 5 1024.5 - 0.0
28/05:00am 7.8 5.3 -4.3 42 4.3 CALM 0 0 0 0 1024.4 - 0.0
28/04:30am 8.6 6.2 -2.9 44 4.3 CALM 0 0 0 0 1024.5 - 0.0
28/04:00am 9.4 7.1 -2.5 43 4.5 CALM 0 0 0 0 1024.5 - 0.0
28/03:30am 9.8 6.8 -1.6 45 4.4 ESE 4 7 2 4 1024.3 - 0.0
28/03:00am 10.0 6.7 -1.4 45 4.4 ESE 6 7 3 4 1024.3 1024.2 0.0
28/02:30am 10.0 6.6 -2.0 43 4.6 ESE 6 11 3 6 1024.3 - 0.0
28/02:00am 10.4 8.2 -1.6 43 4.7 CALM 0 0 0 0 1024.4 - 0.0
28/01:30am 10.7 8.4 -2.7 39 5.1 CALM 0 0 0 0 1024.7 - 0.0
28/01:00am 12.1 8.6 -1.1 40 5.3 E 7 9 4 5 1024.9 - 0.0
28/12:30am 12.3 8.4 -1.6 38 5.5 E 9 9 5 5 1025.1 - 0.0
28/12:00am 12.3 7.6 -1.6 38 5.5 E 13 15 7 8 1025.2 1025.2 0.0
 
Date/Time
CST
Temp
°C
App
Temp
°C
Dew
Point
Rel
Hum
%
Delta-T
°C
Wind Press
QNH
hPa
Press
MSL
hPa
Rain
since 9 am
mm
Dir
 
Spd
km/h
Gust
km/h
Spd
kts
Gust
kts
27/11:30pm 12.6 7.9 -2.1 36 5.8 E 13 15 7 8 1025.3 - 0.0
27/11:00pm 13.7 8.7 -1.5 35 6.2 E 15 17 8 9 1025.4 - 0.0
27/10:30pm 15.5 10.1 -1.1 32 6.9 E 17 19 9 10 1025.4 - 0.0
27/10:00pm 16.0 11.0 -1.1 31 7.2 E 15 19 8 10 1025.4 - 0.0

Other Formats:

Comma delimited format used in spreadsheet applications
http://www.bom.gov.au/fwo/IDS60801/IDS60801.94476.axf

JavaScript Object Notation format (JSON) in row-major order
http://www.bom.gov.au/fwo/IDS60801/IDS60801.94476.json